Time;durP1;ratioP1;P1;durP2;ratioP2;P2;SDS_P1;SDS_P2;PMS_P1;PMS_P2;Temp;Humidity;BMP_temperature;BMP_pressure;BME280_temperature;BME280_humidity;BME280_pressure;Samples;Min_cycle;Max_cycle;Signal;HPM_P1;HPM_P2
2022/07/20 00:02:21;;;;;;;;;;;;;;;17.12;65.18;100880.48;1503276;91;20260;-77
2022/07/20 00:04:45;;;;;;;;;;;;;;;17.18;64.98;100885.63;1496477;92;20318;-77
2022/07/20 00:07:11;;;;;;;;;;;;;;;17.25;65.21;100887.06;1503437;92;20862;-77
2022/07/20 00:12:22;;;;;;;;;;;;;;;17.30;65.25;100892.72;1397922;92;20251;-77
2022/07/20 00:14:48;;;;;;;;;;;;;;;17.32;64.03;100890.19;1501217;91;20274;-77
2022/07/20 00:17:14;;;;;;;;;;;;;;;17.36;63.58;100899.50;1503393;92;20810;-77
2022/07/20 00:19:40;;;;;;;;;;;;;;;17.39;65.21;100894.81;1502647;91;20840;-77
2022/07/20 00:22:06;;;;;;;;;;;;;;;17.39;64.46;100890.80;1501872;92;20323;-76
2022/07/20 00:24:32;;;;;;;;;;;;;;;17.42;63.21;100887.77;1414137;92;20259;-76
2022/07/20 00:26:58;;;;;;;;;;;;;;;17.46;63.31;100889.05;1501401;91;20869;-76
2022/07/20 00:29:25;;;;;;;;;;;;;;;17.49;63.61;100884.19;1500511;91;20344;-76
2022/07/20 00:31:51;;;;;;;;;;;;;;;17.56;64.81;100887.78;1460205;91;20289;-77
2022/07/20 00:34:17;;;;;;;;;;;;;;;17.62;64.14;100885.40;1505352;91;20282;-77
2022/07/20 00:36:43;;;;;;;;;;;;;;;17.68;63.66;100882.81;1437706;92;20371;-77
2022/07/20 00:39:09;;;;;;;;;;;;;;;17.72;63.43;100881.94;1502676;92;20245;-77
2022/07/20 00:41:35;;;;;;;;;;;;;;;17.76;63.09;100881.91;1502927;91;20369;-77
2022/07/20 00:44:05;;;;;;;;;;;;;;;17.80;62.77;100880.55;1502875;91;20237;-77
2022/07/20 00:46:36;;;;;;;;;;;;;;;17.83;62.55;100880.17;1371830;92;20348;-76
2022/07/20 00:49:03;;;;;;;;;;;;;;;17.86;62.08;100874.45;1351667;92;20833;-76
2022/07/20 00:51:29;;;;;;;;;;;;;;;17.89;61.50;100874.08;1466990;92;20236;-78
2022/07/20 00:53:55;;;;;;;;;;;;;;;17.93;62.00;100872.71;1407960;92;20318;-77
2022/07/20 00:56:22;;;;;;;;;;;;;;;17.97;61.54;100875.84;1503718;91;20396;-78
2022/07/20 00:58:48;;;;;;;;;;;;;;;18.00;62.05;100874.95;1505394;91;20243;-77
2022/07/20 01:01:15;;;;;;;;;;;;;;;18.06;62.37;100875.23;1477647;91;20262;-77
2022/07/20 01:03:41;;;;;;;;;;;;;;;18.11;62.26;100878.20;1507801;91;20244;-78
2022/07/20 01:06:08;;;;;;;;;;;;;;;18.14;62.05;100876.48;1426999;91;20303;-77
2022/07/20 01:08:36;;;;;;;;;;;;;;;18.17;61.41;100880.13;1507747;91;20292;-77
2022/07/20 01:11:02;;;;;;;;;;;;;;;18.20;61.89;100875.73;1500470;91;20251;-77
2022/07/20 01:13:29;;;;;;;;;;;;;;;18.19;62.41;100871.41;1371713;91;20319;-77
2022/07/20 01:15:55;;;;;;;;;;;;;;;18.22;62.52;100877.73;1500958;92;20237;-77
2022/07/20 01:18:22;;;;;;;;;;;;;;;18.24;62.39;100871.65;1504058;91;20271;-77
2022/07/20 01:20:50;;;;;;;;;;;;;;;18.27;63.50;100869.97;1496126;91;21188;-77
2022/07/20 01:23:17;;;;;;;;;;;;;;;18.24;62.99;100870.31;1502209;91;20334;-76
2022/07/20 01:25:43;;;;;;;;;;;;;;;18.22;62.93;100872.38;1355995;92;20274;-76
2022/07/20 01:28:10;;;;;;;;;;;;;;;18.22;62.61;100864.33;1348208;91;20284;-76
2022/07/20 01:30:36;;;;;;;;;;;;;;;18.21;63.23;100866.67;1352001;91;20329;-76
2022/07/20 01:33:02;;;;;;;;;;;;;;;18.22;62.62;100861.66;1352108;92;20252;-76
2022/07/20 01:35:28;;;;;;;;;;;;;;;18.21;62.90;100869.34;1410383;92;20847;-77
2022/07/20 01:37:54;;;;;;;;;;;;;;;18.21;62.79;100866.67;1503121;92;20259;-76
2022/07/20 01:40:20;;;;;;;;;;;;;;;18.21;62.05;100861.31;1499223;91;20255;-77
2022/07/20 01:42:46;;;;;;;;;;;;;;;18.22;62.47;100863.81;1499763;91;20345;-76
2022/07/20 01:45:12;;;;;;;;;;;;;;;18.23;64.23;100867.33;1503905;91;20237;-76
2022/07/20 01:47:38;;;;;;;;;;;;;;;18.21;64.47;100862.66;1419738;92;20287;-76
2022/07/20 01:50:06;;;;;;;;;;;;;;;18.19;64.70;100862.85;1502098;91;20259;-76
2022/07/20 01:52:32;;;;;;;;;;;;;;;18.15;64.58;100863.41;1386713;92;20251;-76
2022/07/20 01:54:59;;;;;;;;;;;;;;;18.13;64.20;100864.13;1498231;91;20297;-76
2022/07/20 01:57:31;;;;;;;;;;;;;;;18.12;63.68;100863.78;1502571;91;20266;-77
2022/07/20 01:59:57;;;;;;;;;;;;;;;18.12;64.31;100865.94;1436716;91;20312;-76
2022/07/20 02:02:23;;;;;;;;;;;;;;;18.13;64.16;100862.78;1334795;93;20332;-76
2022/07/20 02:04:49;;;;;;;;;;;;;;;18.12;64.46;100863.27;1409761;91;20302;-76
2022/07/20 02:07:15;;;;;;;;;;;;;;;18.10;64.58;100863.16;1426733;90;20286;-76
2022/07/20 02:09:41;;;;;;;;;;;;;;;18.06;64.27;100864.02;1422574;90;21009;-76
2022/07/20 02:12:07;;;;;;;;;;;;;;;18.04;63.63;100865.55;1414006;91;20323;-76
2022/07/20 02:14:33;;;;;;;;;;;;;;;18.03;63.56;100863.87;1402144;93;20409;-77
2022/07/20 02:16:59;;;;;;;;;;;;;;;18.00;63.22;100858.89;1406031;92;20335;-77
2022/07/20 02:19:25;;;;;;;;;;;;;;;17.97;63.13;100856.59;1426105;90;20499;-77
2022/07/20 02:21:50;;;;;;;;;;;;;;;17.96;63.23;100860.29;1423274;92;20501;-77
2022/07/20 02:24:16;;;;;;;;;;;;;;;17.95;63.56;100859.98;1426005;91;20380;-77
2022/07/20 02:26:42;;;;;;;;;;;;;;;17.93;63.74;100863.34;1421117;92;20351;-77
2022/07/20 02:29:08;;;;;;;;;;;;;;;17.86;64.50;100861.06;1424475;91;20469;-77
2022/07/20 02:31:34;;;;;;;;;;;;;;;17.83;63.52;100860.09;1426124;91;20357;-76
2022/07/20 02:34:00;;;;;;;;;;;;;;;17.78;64.03;100867.84;1419527;91;20281;-76
2022/07/20 02:36:25;;;;;;;;;;;;;;;17.74;63.26;100867.87;1422800;91;20355;-77
2022/07/20 02:38:51;;;;;;;;;;;;;;;17.69;64.07;100871.08;1432647;91;20411;-77
2022/07/20 02:41:17;;;;;;;;;;;;;;;17.63;65.13;100868.31;1424000;92;20908;-77
2022/07/20 02:43:43;;;;;;;;;;;;;;;17.56;65.55;100867.71;1420210;91;20449;-77
2022/07/20 02:46:09;;;;;;;;;;;;;;;17.48;66.04;100874.48;1409067;91;20986;-77
2022/07/20 02:48:35;;;;;;;;;;;;;;;17.41;66.09;100868.72;1418032;92;20879;-77
2022/07/20 02:51:01;;;;;;;;;;;;;;;17.34;65.97;100871.27;1427676;92;20351;-77
2022/07/20 02:53:27;;;;;;;;;;;;;;;17.26;66.47;100873.52;1428515;92;20380;-77
2022/07/20 02:55:53;;;;;;;;;;;;;;;17.19;66.52;100877.09;1424057;92;20311;-77
2022/07/20 02:58:19;;;;;;;;;;;;;;;17.14;66.96;100877.62;1426513;92;20348;-77
2022/07/20 03:00:45;;;;;;;;;;;;;;;17.09;67.29;100874.64;1426804;92;20273;-78
2022/07/20 03:03:11;;;;;;;;;;;;;;;17.06;67.47;100879.02;1418003;92;20355;-77
2022/07/20 03:05:37;;;;;;;;;;;;;;;17.02;67.11;100871.86;1422902;92;20303;-77
2022/07/20 03:08:07;;;;;;;;;;;;;;;16.99;68.68;100876.74;1405812;92;20464;-77
2022/07/20 03:10:34;;;;;;;;;;;;;;;16.93;68.55;100886.81;1419956;92;20387;-77
2022/07/20 03:13:00;;;;;;;;;;;;;;;16.88;68.11;100886.83;1427944;91;20835;-78
2022/07/20 03:15:26;;;;;;;;;;;;;;;16.86;68.65;100890.69;1424349;91;20306;-78
2022/07/20 03:17:54;;;;;;;;;;;;;;;16.84;67.66;100887.38;1428103;91;20356;-77
2022/07/20 03:20:22;;;;;;;;;;;;;;;16.81;68.66;100885.06;1424341;91;20447;-76
2022/07/20 03:22:49;;;;;;;;;;;;;;;16.81;67.92;100887.73;1430211;91;20438;-77
2022/07/20 03:25:15;;;;;;;;;;;;;;;16.79;69.07;100889.74;1432444;91;20876;-77
2022/07/20 03:27:41;;;;;;;;;;;;;;;16.78;69.04;100890.77;1428636;91;20453;-76
2022/07/20 03:30:08;;;;;;;;;;;;;;;16.80;68.77;100895.41;1427287;91;20349;-76
2022/07/20 03:32:34;;;;;;;;;;;;;;;16.82;68.67;100893.39;1432350;91;20794;-77
2022/07/20 03:35:00;;;;;;;;;;;;;;;16.86;69.93;100892.02;1426352;91;20409;-76
2022/07/20 03:37:26;;;;;;;;;;;;;;;16.89;69.95;100890.36;1428845;91;20349;-76
2022/07/20 03:39:52;;;;;;;;;;;;;;;16.91;69.51;100893.16;1431440;91;20276;-77
2022/07/20 03:42:18;;;;;;;;;;;;;;;16.96;70.29;100899.32;1423934;91;20930;-77
2022/07/20 03:44:44;;;;;;;;;;;;;;;16.96;69.43;100896.64;1431827;91;20364;-77
2022/07/20 03:47:10;;;;;;;;;;;;;;;17.00;69.87;100897.94;1430057;91;20373;-77
2022/07/20 03:49:35;;;;;;;;;;;;;;;17.03;68.85;100902.10;1430030;91;20930;-76
2022/07/20 03:52:02;;;;;;;;;;;;;;;17.07;68.44;100904.25;1424739;91;20306;-76
2022/07/20 03:54:27;;;;;;;;;;;;;;;17.10;68.02;100898.55;1433512;91;20746;-76
2022/07/20 03:56:53;;;;;;;;;;;;;;;17.16;67.22;100902.86;1430363;91;20358;-77
2022/07/20 03:59:19;;;;;;;;;;;;;;;17.19;66.85;100901.16;1421932;91;20298;-77
2022/07/20 04:01:45;;;;;;;;;;;;;;;17.23;66.27;100903.28;1426919;91;20335;-77
2022/07/20 04:04:11;;;;;;;;;;;;;;;17.23;68.33;100900.61;1424710;91;20409;-77
2022/07/20 04:06:37;;;;;;;;;;;;;;;17.26;68.24;100904.77;1432415;91;20321;-76
2022/07/20 04:09:03;;;;;;;;;;;;;;;17.27;66.98;100901.92;1423553;91;20478;-77
2022/07/20 04:11:29;;;;;;;;;;;;;;;17.32;68.48;100906.24;1426975;91;20349;-77
2022/07/20 04:13:55;;;;;;;;;;;;;;;17.36;68.64;100906.19;1432096;91;20350;-78
2022/07/20 04:16:21;;;;;;;;;;;;;;;17.42;68.29;100906.49;1442482;91;20470;-77
2022/07/20 04:18:47;;;;;;;;;;;;;;;17.47;67.72;100910.29;1429206;91;20395;-77
2022/07/20 04:21:14;;;;;;;;;;;;;;;17.51;67.63;100906.22;1421445;91;20513;-77
2022/07/20 04:23:40;;;;;;;;;;;;;;;17.57;66.96;100901.99;1420457;91;20440;-77
2022/07/20 04:26:06;;;;;;;;;;;;;;;17.64;67.10;100902.94;1441135;90;20315;-77
2022/07/20 04:28:32;;;;;;;;;;;;;;;17.72;66.37;100907.36;1452142;90;20277;-77
2022/07/20 04:30:58;;;;;;;;;;;;;;;17.80;66.73;100905.98;1431020;90;20350;-78
2022/07/20 04:33:24;;;;;;;;;;;;;;;17.85;66.52;100904.92;1431049;91;20870;-77
2022/07/20 04:35:50;;;;;;;;;;;;;;;17.91;67.03;100906.87;1433137;91;20372;-77
2022/07/20 04:38:17;;;;;;;;;;;;;;;17.90;68.40;100906.55;1424338;90;20306;-77
2022/07/20 04:40:44;;;;;;;;;;;;;;;17.92;66.75;100908.52;1426164;91;20388;-76
2022/07/20 04:43:10;;;;;;;;;;;;;;;17.99;66.87;100912.14;1426980;91;20366;-77
2022/07/20 04:45:36;;;;;;;;;;;;;;;18.07;66.76;100914.38;1426251;91;20314;-77
2022/07/20 04:48:02;;;;;;;;;;;;;;;18.16;66.27;100905.27;1425780;91;20321;-77
2022/07/20 04:50:28;;;;;;;;;;;;;;;18.26;65.85;100909.81;1431264;91;20269;-77
2022/07/20 04:52:54;;;;;;;;;;;;;;;18.36;66.43;100910.89;1426199;91;21027;-76
2022/07/20 04:55:20;;;;;;;;;;;;;;;18.45;66.14;100918.63;1426570;91;20477;-76
2022/07/20 04:57:46;;;;;;;;;;;;;;;18.58;65.29;100924.64;1432141;91;20350;-77
2022/07/20 05:00:12;;;;;;;;;;;;;;;18.70;65.05;100922.30;1431206;91;21084;-77
2022/07/20 05:02:38;;;;;;;;;;;;;;;18.83;65.00;100922.48;1424285;91;20320;-76
2022/07/20 05:05:05;;;;;;;;;;;;;;;18.97;64.57;100925.33;1432838;91;20328;-77
2022/07/20 05:07:31;;;;;;;;;;;;;;;19.07;63.67;100931.19;1427602;91;21218;-76
2022/07/20 05:09:57;;;;;;;;;;;;;;;19.20;63.19;100928.65;1425113;91;20328;-77
2022/07/20 05:12:23;;;;;;;;;;;;;;;19.34;62.78;100931.77;1429707;91;20417;-77
2022/07/20 05:14:49;;;;;;;;;;;;;;;19.48;62.26;100935.89;1427735;91;20313;-76
2022/07/20 05:17:15;;;;;;;;;;;;;;;19.61;61.54;100935.50;1434747;91;20849;-77
2022/07/20 05:19:41;;;;;;;;;;;;;;;19.70;61.18;100937.55;1425246;91;20335;-76
2022/07/20 05:22:07;;;;;;;;;;;;;;;19.83;60.84;100941.70;1422587;91;20417;-76
2022/07/20 05:24:32;;;;;;;;;;;;;;;19.98;60.54;100944.78;1417737;91;20431;-77
2022/07/20 05:26:58;;;;;;;;;;;;;;;20.10;60.62;100945.89;1431220;91;20364;-76
2022/07/20 05:29:24;;;;;;;;;;;;;;;20.25;60.12;100941.24;1426808;91;20349;-77
2022/07/20 05:31:50;;;;;;;;;;;;;;;20.39;60.01;100943.98;1427746;91;20335;-76
2022/07/20 05:34:16;;;;;;;;;;;;;;;20.54;59.35;100939.83;1429821;91;20336;-76
2022/07/20 05:36:42;;;;;;;;;;;;;;;20.67;59.14;100942.58;1432837;91;20312;-76
2022/07/20 05:39:09;;;;;;;;;;;;;;;20.79;58.83;100940.13;1423007;91;20395;-77
2022/07/20 05:41:36;;;;;;;;;;;;;;;20.91;58.33;100943.36;1430632;91;20350;-77
2022/07/20 05:44:02;;;;;;;;;;;;;;;21.05;57.80;100942.88;1421407;91;20335;-76
2022/07/20 05:46:28;;;;;;;;;;;;;;;21.22;57.78;100938.47;1424239;91;20584;-76
2022/07/20 05:48:54;;;;;;;;;;;;;;;21.39;57.20;100942.45;1430238;91;20417;-76
2022/07/20 05:51:20;;;;;;;;;;;;;;;21.54;55.93;100946.28;1421940;91;20929;-77
2022/07/20 05:53:45;;;;;;;;;;;;;;;21.66;54.84;100949.17;1430884;91;20403;-77
2022/07/20 05:56:11;;;;;;;;;;;;;;;21.82;54.62;100946.06;1423365;91;20335;-77
2022/07/20 05:58:38;;;;;;;;;;;;;;;21.98;55.01;100943.44;1431083;91;20357;-77
2022/07/20 06:01:04;;;;;;;;;;;;;;;22.14;54.70;100940.83;1432402;91;20392;-76
2022/07/20 06:03:30;;;;;;;;;;;;;;;22.27;54.23;100936.79;1413117;91;20415;-76
2022/07/20 06:05:56;;;;;;;;;;;;;;;22.44;54.61;100943.36;1425665;91;20328;-77
2022/07/20 06:08:22;;;;;;;;;;;;;;;22.52;52.06;100945.80;1424698;91;20333;-77
2022/07/20 06:10:48;;;;;;;;;;;;;;;22.67;52.99;100941.50;1421424;91;20306;-77
2022/07/20 06:13:14;;;;;;;;;;;;;;;22.85;53.22;100944.83;1427344;91;20283;-77
2022/07/20 06:15:40;;;;;;;;;;;;;;;23.01;51.92;100939.98;1427627;91;20350;-77
2022/07/20 06:18:06;;;;;;;;;;;;;;;23.14;52.04;100934.51;1423489;91;20491;-77
2022/07/20 06:20:33;;;;;;;;;;;;;;;23.27;51.00;100938.98;1429008;91;20432;-78
2022/07/20 06:22:58;;;;;;;;;;;;;;;23.39;51.08;100936.72;1434683;91;20528;-78
2022/07/20 06:25:25;;;;;;;;;;;;;;;23.56;51.38;100933.44;1427879;91;20351;-77
2022/07/20 06:27:51;;;;;;;;;;;;;;;23.71;50.46;100932.63;1435454;91;20886;-77
2022/07/20 06:30:16;;;;;;;;;;;;;;;23.87;48.58;100928.52;1429129;91;20270;-76
2022/07/20 06:32:42;;;;;;;;;;;;;;;24.02;49.79;100927.62;1432841;91;20343;-77
2022/07/20 06:35:08;;;;;;;;;;;;;;;24.08;48.78;100929.95;1423720;91;20262;-77
2022/07/20 06:37:35;;;;;;;;;;;;;;;24.24;47.36;100929.89;1422799;91;20348;-78
2022/07/20 06:40:01;;;;;;;;;;;;;;;24.36;47.50;100931.31;1428514;91;20446;-78
2022/07/20 06:42:27;;;;;;;;;;;;;;;24.48;47.09;100924.92;1424687;91;20299;-77
2022/07/20 06:44:53;;;;;;;;;;;;;;;24.64;47.91;100925.37;1427143;91;20335;-77
2022/07/20 06:47:19;;;;;;;;;;;;;;;24.83;48.05;100932.41;1428667;91;20887;-77
2022/07/20 06:49:45;;;;;;;;;;;;;;;24.96;44.91;100919.19;1428884;91;20342;-77
2022/07/20 06:52:11;;;;;;;;;;;;;;;24.98;43.71;100920.62;1424746;91;20952;-77
2022/07/20 06:54:37;;;;;;;;;;;;;;;25.02;41.44;100920.97;1430348;91;20328;-77
2022/07/20 06:57:03;;;;;;;;;;;;;;;25.12;43.15;100921.25;1424257;91;20299;-78
2022/07/20 06:59:28;;;;;;;;;;;;;;;25.29;44.55;100921.94;1427905;91;20454;-77
2022/07/20 07:01:54;;;;;;;;;;;;;;;25.45;44.34;100923.97;1428804;91;20269;-77
2022/07/20 07:04:20;;;;;;;;;;;;;;;25.60;42.35;100921.62;1425931;91;20291;-77
2022/07/20 07:06:46;;;;;;;;;;;;;;;25.69;42.51;100925.33;1427369;91;20372;-77
2022/07/20 07:09:12;;;;;;;;;;;;;;;25.85;43.77;100926.84;1433585;91;20365;-77
2022/07/20 07:11:38;;;;;;;;;;;;;;;26.01;42.89;100921.75;1430279;91;20922;-78
2022/07/20 07:14:05;;;;;;;;;;;;;;;26.17;42.62;100924.27;1427763;91;20960;-77
2022/07/20 07:16:31;;;;;;;;;;;;;;;26.20;39.66;100917.01;1420477;91;21134;-77
2022/07/20 07:18:57;;;;;;;;;;;;;;;26.36;42.09;100924.41;1429612;91;20351;-78
2022/07/20 07:21:23;;;;;;;;;;;;;;;26.51;42.40;100926.09;1430354;91;20351;-77
2022/07/20 07:23:50;;;;;;;;;;;;;;;26.66;41.53;100926.10;1419367;90;20925;-77
2022/07/20 07:26:18;;;;;;;;;;;;;;;26.81;41.69;100927.73;1421147;91;20314;-77
2022/07/20 07:28:44;;;;;;;;;;;;;;;26.94;41.18;100924.73;1426441;91;20498;-77
2022/07/20 07:31:10;;;;;;;;;;;;;;;27.00;38.71;100925.11;1424185;91;20320;-78
2022/07/20 07:33:36;;;;;;;;;;;;;;;26.86;37.20;100925.13;1426076;91;20413;-78
2022/07/20 07:36:04;;;;;;;;;;;;;;;27.01;39.40;100924.03;1424138;91;20321;-78
2022/07/20 07:38:30;;;;;;;;;;;;;;;27.07;37.25;100926.30;1507161;91;20373;-77
2022/07/20 07:40:56;;;;;;;;;;;;;;;27.13;38.70;100928.57;1507419;91;20239;-86
2022/07/20 07:43:26;;;;;;;;;;;;;;;27.29;38.69;100926.44;1507633;91;20388;-86
2022/07/20 07:45:52;;;;;;;;;;;;;;;27.47;38.23;100924.00;1498185;91;20246;-86
2022/07/20 07:48:19;;;;;;;;;;;;;;;27.63;38.17;100920.46;1507395;91;20269;-86
2022/07/20 07:50:46;;;;;;;;;;;;;;;27.78;37.32;100921.22;1507662;91;20315;-85
2022/07/20 07:53:13;;;;;;;;;;;;;;;27.90;37.15;100915.70;1387541;91;20500;-85
2022/07/20 07:55:40;;;;;;;;;;;;;;;28.01;35.43;100915.31;1507614;91;20329;-85
2022/07/20 07:58:08;;;;;;;;;;;;;;;28.13;37.06;100911.37;1507631;91;20254;-86
2022/07/20 08:00:35;;;;;;;;;;;;;;;28.24;36.45;100915.06;1507555;91;20240;-85
2022/07/20 08:03:03;;;;;;;;;;;;;;;28.32;34.58;100920.06;1408417;91;20307;-86
2022/07/20 08:05:29;;;;;;;;;;;;;;;28.34;32.63;100916.56;1507920;91;20284;-88
2022/07/20 08:07:55;;;;;;;;;;;;;;;28.48;34.37;100914.27;1507555;91;20239;-86
2022/07/20 08:10:21;;;;;;;;;;;;;;;28.62;34.31;100918.79;1471781;91;20367;-87
2022/07/20 08:12:49;;;;;;;;;;;;;;;28.75;34.77;100918.39;1416834;91;20359;-88
2022/07/20 08:15:15;;;;;;;;;;;;;;;28.91;34.91;100911.18;1503016;91;20255;-87
2022/07/20 08:17:45;;;;;;;;;;;;;;;29.06;34.46;100913.80;1354227;92;20350;-88
2022/07/20 08:20:12;;;;;;;;;;;;;;;29.18;34.65;100912.56;1374984;93;20359;-88
2022/07/20 08:22:38;;;;;;;;;;;;;;;29.13;31.64;100906.25;1502454;91;20262;-87
2022/07/20 08:25:04;;;;;;;;;;;;;;;29.32;34.44;100908.02;1504009;92;20262;-87
2022/07/20 08:27:30;;;;;;;;;;;;;;;29.31;31.94;100906.38;1503941;91;20305;-86
2022/07/20 08:30:03;;;;;;;;;;;;;;;29.35;32.97;100901.52;1504101;91;20351;-87
2022/07/20 08:32:29;;;;;;;;;;;;;;;29.27;30.29;100898.46;1435134;92;20367;-86
2022/07/20 08:34:57;;;;;;;;;;;;;;;29.38;30.08;100892.82;1504116;92;20470;-87
2022/07/20 08:37:24;;;;;;;;;;;;;;;29.42;30.97;100897.20;1504158;92;20367;-87
2022/07/20 08:39:50;;;;;;;;;;;;;;;29.53;31.50;100890.73;1504108;92;20418;-87
2022/07/20 08:42:16;;;;;;;;;;;;;;;29.77;32.81;100890.36;1504076;92;20270;-87
2022/07/20 08:44:43;;;;;;;;;;;;;;;29.97;33.16;100887.73;1407404;92;20277;-87
2022/07/20 08:47:13;;;;;;;;;;;;;;;30.13;31.56;100886.72;1504043;91;20262;-87
2022/07/20 08:49:42;;;;;;;;;;;;;;;30.33;30.60;100885.19;1355376;92;20315;-86
2022/07/20 08:52:08;;;;;;;;;;;;;;;30.52;32.57;100887.67;1390875;91;20269;-88
2022/07/20 08:54:34;;;;;;;;;;;;;;;30.70;30.21;100888.25;1500532;92;20372;-87
2022/07/20 08:57:11;;;;;;;;;;;;;;;30.67;30.25;100879.23;1504043;91;20268;-87
2022/07/20 08:59:37;;;;;;;;;;;;;;;30.73;29.93;100883.64;1504216;91;21199;-86
2022/07/20 09:02:05;;;;;;;;;;;;;;;30.69;28.89;100879.80;1504061;92;20791;-87
2022/07/20 09:04:32;;;;;;;;;;;;;;;30.78;30.15;100884.44;1503820;92;20276;-87
2022/07/20 09:06:59;;;;;;;;;;;;;;;30.90;29.69;100878.77;1503968;91;20269;-86
2022/07/20 09:09:26;;;;;;;;;;;;;;;31.02;29.54;100870.30;1426897;92;20367;-85
2022/07/20 09:11:53;;;;;;;;;;;;;;;31.02;27.20;100873.03;1402358;92;20366;-88
2022/07/20 09:14:43;;;;;;;;;;;;;;;31.00;26.72;100862.36;1504057;91;20263;-88
2022/07/20 09:17:16;;;;;;;;;;;;;;;31.22;28.99;100873.58;1373740;93;20328;-87
2022/07/20 09:20:00;;;;;;;;;;;;;;;31.37;28.42;100869.47;1480790;93;20346;-89
2022/07/20 09:22:38;;;;;;;;;;;;;;;31.42;27.27;100859.09;1480976;92;20827;-88
2022/07/20 09:25:08;;;;;;;;;;;;;;;31.47;28.10;100861.23;1473700;93;20246;-87
2022/07/20 09:27:35;;;;;;;;;;;;;;;31.61;28.15;100857.93;1480633;93;20359;-87
2022/07/20 09:30:09;;;;;;;;;;;;;;;31.73;25.89;100861.72;1416399;93;20254;-88
2022/07/20 09:32:51;;;;;;;;;;;;;;;31.82;26.79;100855.42;1411357;93;20261;-88
2022/07/20 09:35:20;;;;;;;;;;;;;;;31.91;27.28;100859.80;1460955;93;20827;-87
2022/07/20 09:37:46;;;;;;;;;;;;;;;32.07;28.12;100857.80;1444147;93;20300;-87
2022/07/20 09:40:12;;;;;;;;;;;;;;;32.12;27.28;100864.63;1480775;93;20261;-87
2022/07/20 09:42:41;;;;;;;;;;;;;;;32.08;25.66;100860.27;1416009;93;20310;-90
2022/07/20 09:45:24;;;;;;;;;;;;;;;32.12;24.61;100856.41;1470935;93;20232;-92
2022/07/20 09:48:07;;;;;;;;;;;;;;;32.29;26.84;100860.97;1482797;93;20339;-88
2022/07/20 09:50:37;;;;;;;;;;;;;;;32.32;24.43;100848.63;1480728;93;20262;-87
2022/07/20 09:53:10;;;;;;;;;;;;;;;32.47;25.16;100851.30;1383781;93;20797;-87
2022/07/20 09:55:37;;;;;;;;;;;;;;;32.70;25.85;100850.33;1480758;93;20381;-88
2022/07/20 09:58:11;;;;;;;;;;;;;;;32.73;25.20;100849.20;1480576;93;20325;-89
2022/07/20 10:00:38;;;;;;;;;;;;;;;32.86;25.41;100843.63;1480758;93;20247;-90
2022/07/20 10:03:04;;;;;;;;;;;;;;;32.97;24.41;100845.19;1480661;93;20339;-89
2022/07/20 10:05:34;;;;;;;;;;;;;;;33.11;25.28;100847.27;1480734;93;20239;-87
2022/07/20 10:08:04;;;;;;;;;;;;;;;33.10;22.79;100834.12;1485980;92;20780;-87
2022/07/20 10:10:33;;;;;;;;;;;;;;;33.17;24.29;100834.58;1502919;92;20237;-89
2022/07/20 10:12:59;;;;;;;;;;;;;;;33.33;25.34;100823.48;1381793;92;21288;-91
2022/07/20 10:15:34;;;;;;;;;;;;;;;33.44;25.03;100825.00;1463104;90;20269;-92
2022/07/20 10:18:00;;;;;;;;;;;;;;;33.57;24.46;100821.58;1479775;93;20239;-91
2022/07/20 10:20:33;;;;;;;;;;;;;;;33.65;24.24;100819.56;1479804;93;20260;-91
2022/07/20 10:23:17;;;;;;;;;;;;;;;33.67;23.54;100817.91;1479903;92;20365;-91
2022/07/20 10:25:45;;;;;;;;;;;;;;;33.70;22.84;100809.90;1390379;93;20397;-91
2022/07/20 10:28:28;;;;;;;;;;;;;;;33.72;23.41;100808.22;1479828;93;20338;-91
2022/07/20 10:31:16;;;;;;;;;;;;;;;33.48;21.27;100809.58;1479812;92;20254;-92
2022/07/20 10:33:43;;;;;;;;;;;;;;;33.80;23.32;100812.25;1334904;94;20343;-90
2022/07/20 10:38:58;;;;;;;;;;;;;;;33.76;22.08;100801.61;1474828;92;20358;-92
2022/07/20 10:41:33;;;;;;;;;;;;;;;33.61;22.12;100804.80;1474276;92;20264;-90
2022/07/20 10:44:23;;;;;;;;;;;;;;;33.53;21.31;100805.45;1471375;93;20277;-93
2022/07/20 10:46:49;;;;;;;;;;;;;;;33.80;22.37;100801.27;1469652;93;20269;-89
2022/07/20 10:49:16;;;;;;;;;;;;;;;33.55;21.19;100799.12;1468579;93;20265;-89
2022/07/20 10:51:42;;;;;;;;;;;;;;;33.63;21.44;100791.59;1460809;93;20387;-91
2022/07/20 10:54:34;;;;;;;;;;;;;;;33.62;21.87;100795.45;1478767;93;20242;-91
2022/07/20 10:57:01;;;;;;;;;;;;;;;33.75;23.13;100787.08;1483258;92;21201;-90
2022/07/20 10:59:27;;;;;;;;;;;;;;;34.01;22.67;100782.05;1480174;93;20340;-90
2022/07/20 11:01:54;;;;;;;;;;;;;;;34.01;21.61;100773.81;1408223;93;20290;-90
2022/07/20 11:04:25;;;;;;;;;;;;;;;34.14;21.68;100773.09;1355749;95;20329;-91
2022/07/20 11:06:55;;;;;;;;;;;;;;;34.36;22.20;100768.37;1360438;95;20336;-90
2022/07/20 11:09:26;;;;;;;;;;;;;;;34.39;20.87;100769.70;1371441;95;20307;-89
2022/07/20 11:11:52;;;;;;;;;;;;;;;34.49;22.35;100762.66;1399351;93;20420;-89
2022/07/20 11:14:18;;;;;;;;;;;;;;;34.63;22.81;100756.42;1389359;94;20343;-89
2022/07/20 11:16:46;;;;;;;;;;;;;;;34.34;20.59;100762.91;1397480;93;20833;-88
2022/07/20 11:19:13;;;;;;;;;;;;;;;34.29;20.84;100762.42;1390755;94;20358;-89
2022/07/20 11:21:41;;;;;;;;;;;;;;;34.26;21.11;100762.21;1384850;94;20407;-88
2022/07/20 11:24:27;;;;;;;;;;;;;;;34.25;20.83;100756.47;1400432;93;20276;-87
2022/07/20 11:26:54;;;;;;;;;;;;;;;34.51;22.74;100757.69;1431063;91;20920;-85
2022/07/20 11:29:21;;;;;;;;;;;;;;;34.36;20.44;100754.63;1513418;91;20269;-87
2022/07/20 11:31:46;;;;;;;;;;;;;;;34.51;21.72;100745.31;1498043;91;20278;-83
2022/07/20 11:34:14;;;;;;;;;;;;;;;34.29;20.53;100745.13;1403149;93;20315;-85
2022/07/20 11:36:41;;;;;;;;;;;;;;;34.32;20.33;100752.77;1438016;91;20305;-86
2022/07/20 11:39:09;;;;;;;;;;;;;;;34.44;21.38;100743.53;1429169;91;20350;-86
2022/07/20 11:41:39;;;;;;;;;;;;;;;34.33;21.25;100748.92;1428671;91;21674;-89
2022/07/20 11:44:18;;;;;;;;;;;;;;;34.45;20.76;100745.15;1433523;91;21114;-89
2022/07/20 11:46:48;;;;;;;;;;;;;;;34.63;21.83;100738.00;1435900;91;20439;-87
2022/07/20 11:49:15;;;;;;;;;;;;;;;34.66;20.95;100746.20;1434981;91;20900;-89
2022/07/20 11:51:45;;;;;;;;;;;;;;;34.74;21.28;100738.64;1430214;91;20461;-88
2022/07/20 11:54:11;;;;;;;;;;;;;;;34.77;20.80;100733.91;1431149;91;21023;-87
2022/07/20 11:56:39;;;;;;;;;;;;;;;34.82;20.35;100740.70;1433152;91;20321;-88
2022/07/20 11:59:06;;;;;;;;;;;;;;;35.05;21.46;100729.30;1428802;91;20377;-88
2022/07/20 12:01:36;;;;;;;;;;;;;;;34.89;20.91;100727.92;1437752;91;20349;-89
2022/07/20 12:04:08;;;;;;;;;;;;;;;34.94;21.43;100731.95;1432485;91;20380;-89
2022/07/20 12:06:37;;;;;;;;;;;;;;;34.90;21.30;100734.50;1431761;91;21702;-89
2022/07/20 12:09:08;;;;;;;;;;;;;;;34.93;20.66;100729.77;1429573;91;20941;-88
2022/07/20 12:11:58;;;;;;;;;;;;;;;34.92;20.41;100729.50;1432357;91;20335;-91
2022/07/20 12:14:40;;;;;;;;;;;;;;;34.83;20.15;100731.32;1424264;91;20310;-92
2022/07/20 12:17:18;;;;;;;;;;;;;;;35.13;21.31;100729.13;1432460;91;20320;-91
2022/07/20 12:19:46;;;;;;;;;;;;;;;35.34;21.24;100723.48;1417480;91;20432;-92
2022/07/20 12:22:20;;;;;;;;;;;;;;;35.48;20.45;100724.29;1428741;91;20410;-91
2022/07/20 12:24:57;;;;;;;;;;;;;;;35.56;20.56;100719.20;1418716;91;20316;-91
2022/07/20 12:27:26;;;;;;;;;;;;;;;35.60;20.65;100713.34;1412259;91;20812;-91
2022/07/20 12:29:52;;;;;;;;;;;;;;;35.51;20.56;100712.42;1428518;91;20939;-91
2022/07/20 12:32:30;;;;;;;;;;;;;;;35.67;22.00;100716.48;1419416;91;20399;-89
2022/07/20 12:35:09;;;;;;;;;;;;;;;35.77;20.16;100711.32;1429609;91;20975;-89
2022/07/20 12:37:51;;;;;;;;;;;;;;;35.83;19.86;100709.52;1428760;91;20335;-90
2022/07/20 12:40:44;;;;;;;;;;;;;;;35.95;20.42;100703.45;1425821;91;20375;-89
2022/07/20 12:43:31;;;;;;;;;;;;;;;35.97;19.47;100707.28;1400561;93;20291;-90
2022/07/20 12:46:01;;;;;;;;;;;;;;;35.98;19.47;100702.02;1385628;94;20442;-88